sensor_id;sensor_type;location;lat;lon;timestamp;pressure;altitude;pressure_sealevel;temperature;humidity
55456;BME280;63021;52.836;6.376;2023-04-15T00:00:23;101118.44;;;6.74;62.12
55456;BME280;63021;52.836;6.376;2023-04-15T00:02:50;101086.59;;;6.52;62.10
55456;BME280;63021;52.836;6.376;2023-04-15T00:05:17;101126.97;;;6.67;61.69
55456;BME280;63021;52.836;6.376;2023-04-15T00:07:42;101104.19;;;6.53;62.07
55456;BME280;63021;52.836;6.376;2023-04-15T00:10:10;101104.28;;;6.51;62.62
55456;BME280;63021;52.836;6.376;2023-04-15T00:12:35;101112.63;;;6.58;62.46
55456;BME280;63021;52.836;6.376;2023-04-15T00:15:01;101110.53;;;6.50;62.68
55456;BME280;63021;52.836;6.376;2023-04-15T00:17:28;101118.22;;;6.53;61.80
55456;BME280;63021;52.836;6.376;2023-04-15T00:19:54;101104.97;;;6.42;62.11
55456;BME280;63021;52.836;6.376;2023-04-15T00:22:19;101105.31;;;6.37;62.20
55456;BME280;63021;52.836;6.376;2023-04-15T00:24:45;101087.84;;;6.23;62.74
55456;BME280;63021;52.836;6.376;2023-04-15T00:27:13;101084.66;;;6.18;62.96
55456;BME280;63021;52.836;6.376;2023-04-15T00:29:39;101101.78;;;6.26;62.67
55456;BME280;63021;52.836;6.376;2023-04-15T00:32:08;101115.50;;;6.31;63.27
55456;BME280;63021;52.836;6.376;2023-04-15T00:34:37;101110.88;;;6.21;62.66
55456;BME280;63021;52.836;6.376;2023-04-15T00:37:03;101106.06;;;6.15;62.48
55456;BME280;63021;52.836;6.376;2023-04-15T00:39:28;101112.81;;;6.19;63.56
55456;BME280;63021;52.836;6.376;2023-04-15T00:41:54;101122.63;;;6.17;63.45
55456;BME280;63021;52.836;6.376;2023-04-15T00:44:23;101116.75;;;6.14;63.77
55456;BME280;63021;52.836;6.376;2023-04-15T00:46:50;101086.78;;;5.89;62.96
55456;BME280;63021;52.836;6.376;2023-04-15T00:49:16;101111.59;;;5.99;63.54
55456;BME280;63021;52.836;6.376;2023-04-15T00:51:42;101119.41;;;6.01;62.98
55456;BME280;63021;52.836;6.376;2023-04-15T00:54:09;101132.28;;;6.05;63.99
55456;BME280;63021;52.836;6.376;2023-04-15T00:56:36;101137.81;;;6.02;63.49
55456;BME280;63021;52.836;6.376;2023-04-15T00:59:05;101133.78;;;5.97;64.03
55456;BME280;63021;52.836;6.376;2023-04-15T01:01:33;101115.53;;;5.81;63.19
55456;BME280;63021;52.836;6.376;2023-04-15T01:03:59;101096.13;;;5.69;63.82
55456;BME280;63021;52.836;6.376;2023-04-15T01:06:28;101111.41;;;5.77;63.51
55456;BME280;63021;52.836;6.376;2023-04-15T01:08:54;101125.03;;;5.83;64.06
55456;BME280;63021;52.836;6.376;2023-04-15T01:11:23;101127.03;;;5.80;64.61
55456;BME280;63021;52.836;6.376;2023-04-15T01:13:54;101123.88;;;5.75;64.73
55456;BME280;63021;52.836;6.376;2023-04-15T01:16:20;101118.09;;;5.69;64.04
55456;BME280;63021;52.836;6.376;2023-04-15T01:18:54;101137.94;;;5.75;64.07
55456;BME280;63021;52.836;6.376;2023-04-15T01:21:20;101139.00;;;5.72;64.25
55456;BME280;63021;52.836;6.376;2023-04-15T01:23:47;101098.59;;;5.46;64.24
55456;BME280;63021;52.836;6.376;2023-04-15T01:26:13;101136.91;;;5.65;65.36
55456;BME280;63021;52.836;6.376;2023-04-15T01:28:40;101129.84;;;5.52;65.52
55456;BME280;63021;52.836;6.376;2023-04-15T01:31:10;101128.44;;;5.60;64.51
55456;BME280;63021;52.836;6.376;2023-04-15T01:33:37;101139.97;;;5.59;64.92
55456;BME280;63021;52.836;6.376;2023-04-15T01:36:06;101116.19;;;5.46;64.66
55456;BME280;63021;52.836;6.376;2023-04-15T01:38:32;101134.06;;;5.55;65.48
55456;BME280;63021;52.836;6.376;2023-04-15T01:40:58;101135.00;;;5.54;65.51
55456;BME280;63021;52.836;6.376;2023-04-15T01:43:24;101126.88;;;5.44;65.07
55456;BME280;63021;52.836;6.376;2023-04-15T01:45:50;101122.97;;;5.37;65.47
55456;BME280;63021;52.836;6.376;2023-04-15T01:48:16;101117.81;;;5.35;66.05
55456;BME280;63021;52.836;6.376;2023-04-15T01:50:42;101138.59;;;5.40;65.38
55456;BME280;63021;52.836;6.376;2023-04-15T01:53:07;101133.84;;;5.32;65.89
55456;BME280;63021;52.836;6.376;2023-04-15T01:55:33;101124.66;;;5.25;66.95
55456;BME280;63021;52.836;6.376;2023-04-15T01:57:59;101142.72;;;5.31;66.17
55456;BME280;63021;52.836;6.376;2023-04-15T02:00:25;101121.69;;;5.17;66.33
55456;BME280;63021;52.836;6.376;2023-04-15T02:02:51;101142.94;;;5.28;67.38
55456;BME280;63021;52.836;6.376;2023-04-15T02:05:17;101121.09;;;5.13;66.57
55456;BME280;63021;52.836;6.376;2023-04-15T02:07:42;101137.97;;;5.24;67.29
55456;BME280;63021;52.836;6.376;2023-04-15T02:10:08;101139.56;;;5.26;66.59
55456;BME280;63021;52.836;6.376;2023-04-15T02:12:34;101126.16;;;5.16;66.48
55456;BME280;63021;52.836;6.376;2023-04-15T02:15:00;101143.97;;;5.26;66.45
55456;BME280;63021;52.836;6.376;2023-04-15T02:17:26;101143.16;;;5.25;66.74
55456;BME280;63021;52.836;6.376;2023-04-15T02:19:51;101147.81;;;5.22;66.59
55456;BME280;63021;52.836;6.376;2023-04-15T02:22:17;101154.84;;;5.21;67.33
55456;BME280;63021;52.836;6.376;2023-04-15T02:24:48;101156.97;;;5.16;66.90
55456;BME280;63021;52.836;6.376;2023-04-15T02:27:15;101151.47;;;5.06;66.45
55456;BME280;63021;52.836;6.376;2023-04-15T02:29:43;101144.16;;;4.97;66.81
55456;BME280;63021;52.836;6.376;2023-04-15T02:32:12;101148.41;;;4.99;66.58
55456;BME280;63021;52.836;6.376;2023-04-15T02:34:39;101146.19;;;4.93;66.87
55456;BME280;63021;52.836;6.376;2023-04-15T02:37:07;101172.59;;;5.06;67.24
55456;BME280;63021;52.836;6.376;2023-04-15T02:39:33;101160.88;;;4.97;67.37
55456;BME280;63021;52.836;6.376;2023-04-15T02:41:58;101177.31;;;5.01;66.68
55456;BME280;63021;52.836;6.376;2023-04-15T02:44:25;101188.84;;;5.00;67.54
55456;BME280;63021;52.836;6.376;2023-04-15T02:46:52;101178.25;;;4.87;66.92
55456;BME280;63021;52.836;6.376;2023-04-15T02:49:22;101193.13;;;4.88;67.53
55456;BME280;63021;52.836;6.376;2023-04-15T02:51:48;101206.09;;;4.91;67.11
55456;BME280;63021;52.836;6.376;2023-04-15T02:54:20;101178.59;;;4.68;67.70
55456;BME280;63021;52.836;6.376;2023-04-15T02:56:47;101199.75;;;4.81;67.19
55456;BME280;63021;52.836;6.376;2023-04-15T02:59:14;101188.13;;;4.71;68.11
55456;BME280;63021;52.836;6.376;2023-04-15T03:01:39;101205.53;;;4.73;68.00
55456;BME280;63021;52.836;6.376;2023-04-15T03:04:05;101191.88;;;4.66;68.23
55456;BME280;63021;52.836;6.376;2023-04-15T03:06:33;101195.66;;;4.62;67.86
55456;BME280;63021;52.836;6.376;2023-04-15T03:08:58;101198.50;;;4.59;67.97
55456;BME280;63021;52.836;6.376;2023-04-15T03:11:25;101202.63;;;4.63;68.12
55456;BME280;63021;52.836;6.376;2023-04-15T03:13:51;101211.22;;;4.67;67.43
55456;BME280;63021;52.836;6.376;2023-04-15T03:16:17;101212.06;;;4.67;68.14
55456;BME280;63021;52.836;6.376;2023-04-15T03:18:42;101205.69;;;4.57;67.35
55456;BME280;63021;52.836;6.376;2023-04-15T03:21:08;101214.22;;;4.61;68.22
55456;BME280;63021;52.836;6.376;2023-04-15T03:23:33;101177.88;;;4.39;68.09
55456;BME280;63021;52.836;6.376;2023-04-15T03:26:03;101186.63;;;4.39;67.93
55456;BME280;63021;52.836;6.376;2023-04-15T03:28:29;101190.38;;;4.35;68.84
55456;BME280;63021;52.836;6.376;2023-04-15T03:30:55;101200.66;;;4.40;67.78
55456;BME280;63021;52.836;6.376;2023-04-15T03:33:21;101207.50;;;4.42;67.81
55456;BME280;63021;52.836;6.376;2023-04-15T03:35:47;101216.28;;;4.43;67.99
55456;BME280;63021;52.836;6.376;2023-04-15T03:38:12;101214.88;;;4.37;68.47
55456;BME280;63021;52.836;6.376;2023-04-15T03:40:40;101223.31;;;4.42;68.57
55456;BME280;63021;52.836;6.376;2023-04-15T03:43:07;101220.03;;;4.39;68.67
55456;BME280;63021;52.836;6.376;2023-04-15T03:45:33;101233.69;;;4.45;68.78
55456;BME280;63021;52.836;6.376;2023-04-15T03:48:01;101209.91;;;4.32;68.52
55456;BME280;63021;52.836;6.376;2023-04-15T03:50:27;101213.66;;;4.28;68.94
55456;BME280;63021;52.836;6.376;2023-04-15T03:52:55;101236.31;;;4.45;68.44
55456;BME280;63021;52.836;6.376;2023-04-15T03:55:21;101236.41;;;4.44;69.44
55456;BME280;63021;52.836;6.376;2023-04-15T03:57:46;101243.56;;;4.42;68.52
55456;BME280;63021;52.836;6.376;2023-04-15T04:00:12;101249.88;;;4.39;68.39
55456;BME280;63021;52.836;6.376;2023-04-15T04:02:38;101244.81;;;4.36;69.47
55456;BME280;63021;52.836;6.376;2023-04-15T04:05:03;101211.25;;;4.11;68.82
55456;BME280;63021;52.836;6.376;2023-04-15T04:07:29;101241.69;;;4.29;70.00
55456;BME280;63021;52.836;6.376;2023-04-15T04:09:58;101230.81;;;4.21;69.12
55456;BME280;63021;52.836;6.376;2023-04-15T04:12:23;101240.28;;;4.24;69.19
55456;BME280;63021;52.836;6.376;2023-04-15T04:14:49;101244.91;;;4.20;69.03
55456;BME280;63021;52.836;6.376;2023-04-15T04:17:14;101268.25;;;4.26;69.68
55456;BME280;63021;52.836;6.376;2023-04-15T04:19:40;101255.66;;;4.17;69.31
55456;BME280;63021;52.836;6.376;2023-04-15T04:22:05;101254.06;;;4.14;70.36
55456;BME280;63021;52.836;6.376;2023-04-15T04:24:31;101251.50;;;4.13;70.20
55456;BME280;63021;52.836;6.376;2023-04-15T04:26:59;101266.94;;;4.19;70.05
55456;BME280;63021;52.836;6.376;2023-04-15T04:29:25;101245.22;;;4.01;69.56
55456;BME280;63021;52.836;6.376;2023-04-15T04:31:51;101258.31;;;4.03;69.38
55456;BME280;63021;52.836;6.376;2023-04-15T04:34:16;101274.19;;;4.15;70.22
55456;BME280;63021;52.836;6.376;2023-04-15T04:36:45;101257.53;;;4.01;70.22
55456;BME280;63021;52.836;6.376;2023-04-15T04:39:10;101245.47;;;3.96;69.48
55456;BME280;63021;52.836;6.376;2023-04-15T04:41:39;101252.84;;;4.06;69.77
55456;BME280;63021;52.836;6.376;2023-04-15T04:44:05;101276.06;;;4.13;70.54
55456;BME280;63021;52.836;6.376;2023-04-15T04:46:30;101266.00;;;4.06;69.75
55456;BME280;63021;52.836;6.376;2023-04-15T04:48:58;101260.84;;;4.04;69.41
55456;BME280;63021;52.836;6.376;2023-04-15T04:51:24;101275.97;;;4.15;69.70
55456;BME280;63021;52.836;6.376;2023-04-15T04:53:50;101265.91;;;4.07;70.08
55456;BME280;63021;52.836;6.376;2023-04-15T04:56:15;101284.94;;;4.12;70.20
55456;BME280;63021;52.836;6.376;2023-04-15T04:58:41;101259.63;;;3.95;69.50
55456;BME280;63021;52.836;6.376;2023-04-15T05:01:06;101263.09;;;3.96;69.74
55456;BME280;63021;52.836;6.376;2023-04-15T05:03:35;101263.47;;;3.90;69.62
55456;BME280;63021;52.836;6.376;2023-04-15T05:06:00;101292.75;;;4.14;69.98
55456;BME280;63021;52.836;6.376;2023-04-15T05:08:30;101263.94;;;3.96;69.89
55456;BME280;63021;52.836;6.376;2023-04-15T05:11:02;101300.56;;;4.15;69.53
55456;BME280;63021;52.836;6.376;2023-04-15T05:13:28;101300.56;;;4.15;69.77
55456;BME280;63021;52.836;6.376;2023-04-15T05:15:54;101275.03;;;4.02;69.64
55456;BME280;63021;52.836;6.376;2023-04-15T05:18:20;101307.34;;;4.20;70.25
55456;BME280;63021;52.836;6.376;2023-04-15T05:20:46;101302.16;;;4.18;69.72
55456;BME280;63021;52.836;6.376;2023-04-15T05:23:14;101279.81;;;4.09;70.39
55456;BME280;63021;52.836;6.376;2023-04-15T05:25:40;101291.53;;;4.20;69.81
55456;BME280;63021;52.836;6.376;2023-04-15T05:28:05;101301.88;;;4.23;70.00
55456;BME280;63021;52.836;6.376;2023-04-15T05:30:31;101315.22;;;4.34;69.32
55456;BME280;63021;52.836;6.376;2023-04-15T05:32:56;101322.06;;;4.37;69.92
55456;BME280;63021;52.836;6.376;2023-04-15T05:35:22;101313.03;;;4.41;70.14
55456;BME280;63021;52.836;6.376;2023-04-15T05:37:47;101313.72;;;4.44;70.00
55456;BME280;63021;52.836;6.376;2023-04-15T05:40:13;101314.44;;;4.46;69.22
55456;BME280;63021;52.836;6.376;2023-04-15T05:42:39;101311.06;;;4.44;69.78
55456;BME280;63021;52.836;6.376;2023-04-15T05:45:05;101300.72;;;4.41;69.31
55456;BME280;63021;52.836;6.376;2023-04-15T05:47:34;101322.44;;;4.59;69.30
55456;BME280;63021;52.836;6.376;2023-04-15T05:50:00;101301.84;;;4.51;69.32
55456;BME280;63021;52.836;6.376;2023-04-15T05:52:25;101304.19;;;4.56;69.83
55456;BME280;63021;52.836;6.376;2023-04-15T05:54:51;101331.94;;;4.76;69.74
55456;BME280;63021;52.836;6.376;2023-04-15T05:57:17;101316.22;;;4.75;69.76
55456;BME280;63021;52.836;6.376;2023-04-15T05:59:42;101309.44;;;4.71;70.04
55456;BME280;63021;52.836;6.376;2023-04-15T06:02:09;101323.34;;;4.87;69.28
55456;BME280;63021;52.836;6.376;2023-04-15T06:04:34;101323.34;;;4.87;69.28
55456;BME280;63021;52.836;6.376;2023-04-15T06:07:01;101330.88;;;4.93;69.14
55456;BME280;63021;52.836;6.376;2023-04-15T06:09:26;101355.09;;;5.13;69.42
55456;BME280;63021;52.836;6.376;2023-04-15T06:11:56;101350.78;;;5.12;69.26
55456;BME280;63021;52.836;6.376;2023-04-15T06:14:23;101339.25;;;5.13;70.37
55456;BME280;63021;52.836;6.376;2023-04-15T06:17:00;101371.25;;;5.35;70.61
55456;BME280;63021;52.836;6.376;2023-04-15T06:19:46;101356.28;;;5.36;69.47
55456;BME280;63021;52.836;6.376;2023-04-15T06:22:13;101348.34;;;5.36;69.78
55456;BME280;63021;52.836;6.376;2023-04-15T06:24:38;101371.66;;;5.57;70.69
55456;BME280;63021;52.836;6.376;2023-04-15T06:27:10;101372.47;;;5.57;71.08
55456;BME280;63021;52.836;6.376;2023-04-15T06:29:37;101368.47;;;5.64;70.60
55456;BME280;63021;52.836;6.376;2023-04-15T06:32:08;101380.88;;;5.77;70.95
55456;BME280;63021;52.836;6.376;2023-04-15T06:34:39;101370.22;;;5.78;71.71
55456;BME280;63021;52.836;6.376;2023-04-15T06:37:05;101368.94;;;5.84;71.78
55456;BME280;63021;52.836;6.376;2023-04-15T06:39:41;101395.66;;;6.06;71.78
55456;BME280;63021;52.836;6.376;2023-04-15T06:42:08;101355.97;;;5.94;71.00
55456;BME280;63021;52.836;6.376;2023-04-15T06:44:35;101383.50;;;6.17;72.31
55456;BME280;63021;52.836;6.376;2023-04-15T06:47:01;101384.56;;;6.27;71.76
55456;BME280;63021;52.836;6.376;2023-04-15T06:49:27;101385.63;;;6.37;72.74
55456;BME280;63021;52.836;6.376;2023-04-15T06:51:53;101401.81;;;6.58;72.36
55456;BME280;63021;52.836;6.376;2023-04-15T06:54:22;101387.28;;;6.64;72.25
55456;BME280;63021;52.836;6.376;2023-04-15T06:56:47;101404.41;;;6.84;71.96
55456;BME280;63021;52.836;6.376;2023-04-15T06:59:19;101404.38;;;6.97;72.90
55456;BME280;63021;52.836;6.376;2023-04-15T07:01:48;101399.88;;;7.10;71.92
55456;BME280;63021;52.836;6.376;2023-04-15T07:04:13;101353.22;;;6.97;72.25
55456;BME280;63021;52.836;6.376;2023-04-15T07:06:41;101402.69;;;7.33;72.31
55456;BME280;63021;52.836;6.376;2023-04-15T07:09:15;101397.66;;;7.41;72.30
55456;BME280;63021;52.836;6.376;2023-04-15T07:11:43;101379.25;;;7.40;72.75
55456;BME280;63021;52.836;6.376;2023-04-15T07:14:16;101381.09;;;7.51;73.04
55456;BME280;63021;52.836;6.376;2023-04-15T07:16:45;101419.41;;;7.82;72.97
55456;BME280;63021;52.836;6.376;2023-04-15T07:21:57;101399.06;;;7.94;72.75
55456;BME280;63021;52.836;6.376;2023-04-15T07:24:28;101401.38;;;8.10;73.24
55456;BME280;63021;52.836;6.376;2023-04-15T07:26:54;101419.75;;;8.36;72.20
55456;BME280;63021;52.836;6.376;2023-04-15T07:29:24;101405.03;;;8.31;72.58
55456;BME280;63021;52.836;6.376;2023-04-15T07:31:50;101425.13;;;8.58;72.70
55456;BME280;63021;52.836;6.376;2023-04-15T07:34:19;101411.75;;;8.60;72.63
55456;BME280;63021;52.836;6.376;2023-04-15T07:36:45;101422.63;;;8.68;72.25
55456;BME280;63021;52.836;6.376;2023-04-15T07:39:34;101417.44;;;8.78;72.84
55456;BME280;63021;52.836;6.376;2023-04-15T07:42:22;101437.31;;;8.95;71.97
55456;BME280;63021;52.836;6.376;2023-04-15T07:44:57;101434.44;;;8.98;71.31
55456;BME280;63021;52.836;6.376;2023-04-15T07:47:26;101418.72;;;8.95;71.85
55456;BME280;63021;52.836;6.376;2023-04-15T07:49:55;101410.75;;;8.95;71.41
55456;BME280;63021;52.836;6.376;2023-04-15T07:52:25;101426.34;;;9.11;71.14
55456;BME280;63021;52.836;6.376;2023-04-15T07:54:55;101431.59;;;9.22;72.30
55456;BME280;63021;52.836;6.376;2023-04-15T07:57:28;101412.31;;;9.09;72.05
55456;BME280;63021;52.836;6.376;2023-04-15T08:00:03;101433.53;;;9.31;71.53
55456;BME280;63021;52.836;6.376;2023-04-15T08:02:34;101425.22;;;9.25;71.97
55456;BME280;63021;52.836;6.376;2023-04-15T08:05:00;101437.75;;;9.34;71.14
55456;BME280;63021;52.836;6.376;2023-04-15T08:07:31;101441.00;;;9.38;70.93
55456;BME280;63021;52.836;6.376;2023-04-15T08:10:13;101427.34;;;9.31;71.01
55456;BME280;63021;52.836;6.376;2023-04-15T08:12:39;101429.66;;;9.35;70.67
55456;BME280;63021;52.836;6.376;2023-04-15T08:15:17;101421.94;;;9.32;70.84
55456;BME280;63021;52.836;6.376;2023-04-15T08:17:56;101422.41;;;9.38;70.69
55456;BME280;63021;52.836;6.376;2023-04-15T08:20:33;101428.78;;;9.46;70.68
55456;BME280;63021;52.836;6.376;2023-04-15T08:23:09;101414.91;;;9.43;70.08
55456;BME280;63021;52.836;6.376;2023-04-15T08:25:40;101421.84;;;9.55;70.29
55456;BME280;63021;52.836;6.376;2023-04-15T08:28:32;101460.56;;;9.80;71.12
55456;BME280;63021;52.836;6.376;2023-04-15T08:31:10;101455.25;;;9.80;71.02
55456;BME280;63021;52.836;6.376;2023-04-15T08:33:42;101464.16;;;9.91;70.29
55456;BME280;63021;52.836;6.376;2023-04-15T08:36:11;101462.94;;;9.95;70.08
55456;BME280;63021;52.836;6.376;2023-04-15T08:38:40;101458.13;;;9.88;69.73
55456;BME280;63021;52.836;6.376;2023-04-15T08:41:28;101431.31;;;9.80;69.21
55456;BME280;63021;52.836;6.376;2023-04-15T08:43:57;101451.94;;;9.88;69.50
55456;BME280;63021;52.836;6.376;2023-04-15T08:46:41;101440.38;;;9.78;69.39
55456;BME280;63021;52.836;6.376;2023-04-15T08:49:11;101452.59;;;9.80;69.27
55456;BME280;63021;52.836;6.376;2023-04-15T08:51:39;101464.53;;;9.86;69.36
55456;BME280;63021;52.836;6.376;2023-04-15T08:54:08;101438.81;;;9.75;68.92
55456;BME280;63021;52.836;6.376;2023-04-15T08:56:37;101464.03;;;9.92;68.96
55456;BME280;63021;52.836;6.376;2023-04-15T08:59:06;101464.25;;;10.00;68.20
55456;BME280;63021;52.836;6.376;2023-04-15T09:01:34;101476.75;;;10.10;67.69
55456;BME280;63021;52.836;6.376;2023-04-15T09:04:02;101469.69;;;9.99;67.94
55456;BME280;63021;52.836;6.376;2023-04-15T09:06:31;101479.94;;;10.03;67.83
55456;BME280;63021;52.836;6.376;2023-04-15T09:08:59;101484.56;;;10.01;66.94
55456;BME280;63021;52.836;6.376;2023-04-15T09:11:25;101500.13;;;10.06;66.70
55456;BME280;63021;52.836;6.376;2023-04-15T09:14:01;101502.31;;;10.01;66.73
55456;BME280;63021;52.836;6.376;2023-04-15T09:16:29;101508.84;;;9.97;66.85
55456;BME280;63021;52.836;6.376;2023-04-15T09:18:56;101477.25;;;9.71;66.14
55456;BME280;63021;52.836;6.376;2023-04-15T09:21:27;101514.56;;;9.92;66.30
55456;BME280;63021;52.836;6.376;2023-04-15T09:24:00;101481.75;;;9.70;66.46
55456;BME280;63021;52.836;6.376;2023-04-15T09:26:37;101517.59;;;9.87;65.84
55456;BME280;63021;52.836;6.376;2023-04-15T09:29:26;101478.72;;;9.64;66.26
55456;BME280;63021;52.836;6.376;2023-04-15T09:32:08;101493.28;;;9.60;65.98
55456;BME280;63021;52.836;6.376;2023-04-15T09:34:35;101500.91;;;9.53;66.55
55456;BME280;63021;52.836;6.376;2023-04-15T09:37:39;101532.38;;;9.69;66.63
55456;BME280;63021;52.836;6.376;2023-04-15T09:40:14;101522.59;;;9.58;66.10
55456;BME280;63021;52.836;6.376;2023-04-15T09:43:08;101498.25;;;9.42;65.84
55456;BME280;63021;52.836;6.376;2023-04-15T09:45:38;101525.66;;;9.53;65.82
55456;BME280;63021;52.836;6.376;2023-04-15T09:48:29;101532.91;;;9.63;66.00
55456;BME280;63021;52.836;6.376;2023-04-15T09:51:01;101528.66;;;9.60;66.05
55456;BME280;63021;52.836;6.376;2023-04-15T09:53:33;101506.09;;;9.54;66.47
55456;BME280;63021;52.836;6.376;2023-04-15T09:56:05;101523.72;;;9.67;66.93
55456;BME280;63021;52.836;6.376;2023-04-15T09:58:54;101521.41;;;9.62;66.22
55456;BME280;63021;52.836;6.376;2023-04-15T10:01:30;101541.56;;;9.76;66.77
55456;BME280;63021;52.836;6.376;2023-04-15T10:03:57;101533.22;;;9.69;66.26
55456;BME280;63021;52.836;6.376;2023-04-15T10:06:32;101509.31;;;9.58;66.66
55456;BME280;63021;52.836;6.376;2023-04-15T10:08:59;101533.47;;;9.66;66.75
55456;BME280;63021;52.836;6.376;2023-04-15T10:11:32;101550.38;;;9.77;66.34
55456;BME280;63021;52.836;6.376;2023-04-15T10:14:04;101553.78;;;9.79;66.56
55456;BME280;63021;52.836;6.376;2023-04-15T10:16:31;101513.69;;;9.59;67.00
55456;BME280;63021;52.836;6.376;2023-04-15T10:19:20;101545.06;;;9.77;66.22
55456;BME280;63021;52.836;6.376;2023-04-15T10:21:50;101553.03;;;9.77;66.97
55456;BME280;63021;52.836;6.376;2023-04-15T10:24:29;101553.31;;;9.62;66.45
55456;BME280;63021;52.836;6.376;2023-04-15T10:27:14;101535.81;;;9.48;66.81
55456;BME280;63021;52.836;6.376;2023-04-15T10:29:40;101567.34;;;9.64;66.47
55456;BME280;63021;52.836;6.376;2023-04-15T10:32:07;101548.97;;;9.50;66.63
55456;BME280;63021;52.836;6.376;2023-04-15T10:34:36;101566.94;;;9.69;67.02
55456;BME280;63021;52.836;6.376;2023-04-15T10:37:07;101551.97;;;9.68;67.33
55456;BME280;63021;52.836;6.376;2023-04-15T10:42:11;101545.06;;;9.77;67.35
55456;BME280;63021;52.836;6.376;2023-04-15T10:44:44;101559.50;;;9.95;67.18
55456;BME280;63021;52.836;6.376;2023-04-15T10:47:29;101567.00;;;10.01;66.58
55456;BME280;63021;52.836;6.376;2023-04-15T10:49:58;101549.00;;;9.94;65.96
55456;BME280;63021;52.836;6.376;2023-04-15T10:52:26;101569.28;;;10.06;66.27
55456;BME280;63021;52.836;6.376;2023-04-15T10:55:17;101554.53;;;10.02;65.62
55456;BME280;63021;52.836;6.376;2023-04-15T10:58:06;101533.16;;;9.92;66.11
55456;BME280;63021;52.836;6.376;2023-04-15T11:00:37;101569.88;;;10.10;65.94
55456;BME280;63021;52.836;6.376;2023-04-15T11:03:08;101558.56;;;9.96;65.91
55456;BME280;63021;52.836;6.376;2023-04-15T11:08:06;101588.13;;;10.14;66.02
55456;BME280;63021;52.836;6.376;2023-04-15T11:13:14;101567.72;;;10.03;65.50
55456;BME280;63021;52.836;6.376;2023-04-15T11:15:42;101568.91;;;10.11;65.20
55456;BME280;63021;52.836;6.376;2023-04-15T11:18:21;101566.38;;;10.09;65.60
55456;BME280;63021;52.836;6.376;2023-04-15T11:20:55;101555.25;;;10.04;64.93
55456;BME280;63021;52.836;6.376;2023-04-15T11:23:31;101589.31;;;10.21;64.66
55456;BME280;63021;52.836;6.376;2023-04-15T11:25:59;101569.53;;;10.03;65.47
55456;BME280;63021;52.836;6.376;2023-04-15T11:28:40;101597.09;;;10.13;65.39
55456;BME280;63021;52.836;6.376;2023-04-15T11:31:18;101582.09;;;10.01;65.18
55456;BME280;63021;52.836;6.376;2023-04-15T11:33:56;101606.75;;;10.14;65.80
55456;BME280;63021;52.836;6.376;2023-04-15T11:36:38;101595.88;;;10.17;65.26
55456;BME280;63021;52.836;6.376;2023-04-15T11:39:25;101603.72;;;10.19;64.83
55456;BME280;63021;52.836;6.376;2023-04-15T11:41:59;101601.88;;;10.19;65.08
55456;BME280;63021;52.836;6.376;2023-04-15T11:44:28;101589.47;;;10.09;65.09
55456;BME280;63021;52.836;6.376;2023-04-15T11:46:54;101575.31;;;10.08;64.93
55456;BME280;63021;52.836;6.376;2023-04-15T11:49:30;101593.56;;;10.13;64.74
55456;BME280;63021;52.836;6.376;2023-04-15T11:51:58;101588.03;;;10.04;65.13
55456;BME280;63021;52.836;6.376;2023-04-15T11:54:27;101573.81;;;9.94;64.51
55456;BME280;63021;52.836;6.376;2023-04-15T11:56:53;101614.75;;;10.14;64.73
55456;BME280;63021;52.836;6.376;2023-04-15T11:59:20;101592.16;;;9.97;64.61
55456;BME280;63021;52.836;6.376;2023-04-15T12:01:45;101613.44;;;10.09;64.93
55456;BME280;63021;52.836;6.376;2023-04-15T12:04:16;101584.31;;;9.96;65.14
55456;BME280;63021;52.836;6.376;2023-04-15T12:06:47;101617.03;;;10.19;65.51
55456;BME280;63021;52.836;6.376;2023-04-15T12:09:14;101606.38;;;10.19;65.42
55456;BME280;63021;52.836;6.376;2023-04-15T12:11:48;101594.06;;;10.06;65.35
55456;BME280;63021;52.836;6.376;2023-04-15T12:16:44;101619.31;;;10.12;64.18
55456;BME280;63021;52.836;6.376;2023-04-15T12:19:13;101608.31;;;10.05;64.67
55456;BME280;63021;52.836;6.376;2023-04-15T12:21:46;101615.72;;;10.13;65.14
55456;BME280;63021;52.836;6.376;2023-04-15T12:24:19;101613.75;;;10.15;65.19
55456;BME280;63021;52.836;6.376;2023-04-15T12:26:52;101644.22;;;10.34;64.85
55456;BME280;63021;52.836;6.376;2023-04-15T12:29:19;101641.66;;;10.32;64.51
55456;BME280;63021;52.836;6.376;2023-04-15T12:31:49;101633.00;;;10.19;64.37
55456;BME280;63021;52.836;6.376;2023-04-15T12:34:34;101645.91;;;10.35;64.59
55456;BME280;63021;52.836;6.376;2023-04-15T12:37:02;101657.25;;;10.37;64.86
55456;BME280;63021;52.836;6.376;2023-04-15T12:39:37;101662.72;;;10.35;64.57
55456;BME280;63021;52.836;6.376;2023-04-15T12:42:04;101667.19;;;10.23;64.40
55456;BME280;63021;52.836;6.376;2023-04-15T12:44:36;101660.56;;;10.18;65.10
55456;BME280;63021;52.836;6.376;2023-04-15T12:47:11;101650.31;;;10.02;64.50
55456;BME280;63021;52.836;6.376;2023-04-15T12:49:45;101652.03;;;9.92;64.23
55456;BME280;63021;52.836;6.376;2023-04-15T12:52:23;101673.19;;;9.93;64.69
55456;BME280;63021;52.836;6.376;2023-04-15T12:54:52;101658.94;;;9.83;64.93
55456;BME280;63021;52.836;6.376;2023-04-15T12:57:26;101686.94;;;9.98;64.90
55456;BME280;63021;52.836;6.376;2023-04-15T13:00:22;101659.63;;;9.74;64.57
55456;BME280;63021;52.836;6.376;2023-04-15T13:02:53;101674.50;;;9.87;65.23
55456;BME280;63021;52.836;6.376;2023-04-15T13:05:23;101663.25;;;9.84;65.97
55456;BME280;63021;52.836;6.376;2023-04-15T13:07:49;101690.47;;;9.99;64.96
55456;BME280;63021;52.836;6.376;2023-04-15T13:10:18;101692.16;;;9.88;65.00
55456;BME280;63021;52.836;6.376;2023-04-15T13:12:51;101695.91;;;9.86;65.34
55456;BME280;63021;52.836;6.376;2023-04-15T13:15:20;101697.25;;;9.80;65.35
55456;BME280;63021;52.836;6.376;2023-04-15T13:17:47;101682.84;;;9.71;65.57
55456;BME280;63021;52.836;6.376;2023-04-15T13:20:12;101692.75;;;9.81;66.00
55456;BME280;63021;52.836;6.376;2023-04-15T13:22:38;101702.06;;;9.86;66.57